Time;durP1;ratioP1;P1;durP2;ratioP2;P2;SDS_P1;SDS_P2;PMS_P1;PMS_P2;Temp;Humidity;BMP_temperature;BMP_pressure;BME280_temperature;BME280_humidity;BME280_pressure;Samples;Min_cycle;Max_cycle;Signal;HPM_P1;HPM_P2
2021/12/07 00:00:20;;;;;;;2.25;1.58;;;2.30;72.20;;;;;;5136598;27;20424;-76
2021/12/07 00:02:46;;;;;;;2.97;1.60;;;2.30;72.40;;;;;;5136645;27;20027;-77
2021/12/07 00:05:11;;;;;;;2.67;1.90;;;2.40;72.40;;;;;;5136565;27;20458;-76
2021/12/07 00:07:39;;;;;;;2.40;1.80;;;2.40;72.40;;;;;;5136648;27;20020;-75
2021/12/07 00:10:06;;;;;;;2.05;1.40;;;2.40;72.30;;;;;;5136513;27;20051;-76
2021/12/07 00:12:36;;;;;;;2.65;1.90;;;2.40;72.20;;;;;;5136266;27;20049;-75
2021/12/07 00:15:03;;;;;;;2.88;2.00;;;2.50;72.40;;;;;;5136539;27;20019;-75
2021/12/07 00:17:31;;;;;;;2.42;1.83;;;2.40;73.50;;;;;;5136304;27;20035;-75
2021/12/07 00:19:58;;;;;;;3.97;2.45;;;2.30;74.50;;;;;;5136216;27;20072;-76
2021/12/07 00:22:24;;;;;;;3.65;2.38;;;2.30;75.30;;;;;;5136309;27;20404;-76
2021/12/07 00:24:50;;;;;;;2.78;2.13;;;2.20;76.50;;;;;;5136186;27;20085;-75
2021/12/07 00:27:16;;;;;;;2.50;1.88;;;2.20;77.40;;;;;;5136048;27;20043;-75
2021/12/07 00:29:41;;;;;;;4.57;2.15;;;2.20;78.20;;;;;;5135905;27;20026;-75
2021/12/07 00:32:21;;;;;;;3.35;1.98;;;2.20;79.10;;;;;;5135696;27;20119;-75
2021/12/07 00:37:23;;;;;;;2.47;1.80;;;2.10;79.80;;;;;;5136082;27;20023;-75
2021/12/07 00:39:48;;;;;;;3.35;2.05;;;2.10;80.50;;;;;;5135715;27;20034;-75
2021/12/07 00:42:14;;;;;;;4.13;2.00;;;2.10;81.20;;;;;;5135625;27;20031;-75
2021/12/07 00:44:40;;;;;;;4.20;2.03;;;2.10;81.50;;;;;;5135700;27;20047;-75
2021/12/07 00:47:05;;;;;;;2.97;1.80;;;2.10;82.00;;;;;;5135609;27;20031;-75
2021/12/07 00:49:31;;;;;;;5.25;2.20;;;2.10;82.10;;;;;;5135742;27;20060;-75
2021/12/07 00:51:56;;;;;;;3.38;1.92;;;2.00;82.30;;;;;;5135550;27;20065;-75
2021/12/07 00:54:22;;;;;;;3.03;1.80;;;2.10;82.60;;;;;;5135541;27;20034;-74
2021/12/07 00:56:48;;;;;;;1.73;1.35;;;2.20;82.60;;;;;;5135416;27;20118;-75
2021/12/07 00:59:14;;;;;;;1.95;1.50;;;2.20;82.20;;;;;;5135456;27;20028;-76
2021/12/07 01:01:39;;;;;;;2.78;1.60;;;2.10;82.70;;;;;;5135581;27;20050;-75
2021/12/07 01:04:06;;;;;;;3.72;1.50;;;2.20;82.90;;;;;;5116757;27;20113;-76
2021/12/07 01:06:44;;;;;;;2.13;1.30;;;2.20;82.90;;;;;;5135195;27;20467;-76
2021/12/07 01:09:20;;;;;;;2.72;1.60;;;2.20;83.20;;;;;;5135133;27;20497;-76
2021/12/07 01:25:29;;;;;;;1.13;0.88;;;2.40;80.20;;;;;;5135218;27;20080;-77
2021/12/07 01:27:58;;;;;;;2.63;0.90;;;2.50;79.70;;;;;;5134839;27;20019;-77
2021/12/07 01:33:33;;;;;;;1.23;0.90;;;2.60;79.90;;;;;;5134764;27;20050;-77
2021/12/07 01:38:36;;;;;;;1.35;1.08;;;2.50;80.40;;;;;;5134913;27;20019;-77
2021/12/07 01:41:41;;;;;;;1.15;0.70;;;2.50;80.60;;;;;;5134221;27;20074;-77
2021/12/07 01:52:06;;;;;;;1.13;0.82;;;2.60;80.00;;;;;;5134697;27;20379;-76
2021/12/07 02:00:02;;;;;;;0.75;0.68;;;2.60;80.50;;;;;;5134608;27;20061;-76
2021/12/07 02:02:29;;;;;;;1.50;0.82;;;2.60;80.50;;;;;;5116052;27;20470;-77
2021/12/07 02:04:56;;;;;;;0.85;0.50;;;2.70;79.80;;;;;;5134304;27;20020;-76
2021/12/07 02:07:23;;;;;;;1.13;0.47;;;2.80;79.40;;;;;;5134205;27;20023;-77
2021/12/07 02:09:56;;;;;;;1.13;0.60;;;2.80;79.20;;;;;;5134090;27;20312;-77
2021/12/07 02:12:22;;;;;;;1.15;0.65;;;2.80;79.10;;;;;;5134183;27;20031;-77
2021/12/07 02:14:48;;;;;;;0.60;0.60;;;2.80;79.20;;;;;;5133999;27;20026;-77
2021/12/07 02:17:18;;;;;;;0.90;0.73;;;2.80;79.20;;;;;;5134015;27;20019;-77
2021/12/07 02:19:43;;;;;;;0.70;0.50;;;2.80;79.10;;;;;;5134067;27;20042;-77
2021/12/07 02:22:10;;;;;;;0.60;0.45;;;2.90;79.20;;;;;;5133966;27;20469;-77
2021/12/07 02:24:37;;;;;;;0.40;0.40;;;2.80;79.10;;;;;;5134082;27;20095;-77
2021/12/07 02:27:03;;;;;;;0.70;0.70;;;2.80;79.50;;;;;;5134100;27;20038;-77
2021/12/07 02:29:29;;;;;;;0.65;0.60;;;2.70;79.80;;;;;;5134037;27;20051;-77
2021/12/07 02:31:57;;;;;;;5.15;0.82;;;2.70;80.30;;;;;;5115325;27;20406;-77
2021/12/07 02:34:24;;;;;;;0.98;0.73;;;2.70;80.20;;;;;;5133946;27;20443;-77
2021/12/07 02:36:51;;;;;;;0.82;0.75;;;2.70;80.60;;;;;;5133873;27;20034;-77
2021/12/07 02:39:17;;;;;;;0.95;0.70;;;2.60;81.00;;;;;;5133884;27;20076;-77
2021/12/07 02:41:43;;;;;;;1.25;0.60;;;2.70;81.40;;;;;;5133727;27;20360;-76
2021/12/07 02:44:09;;;;;;;1.08;0.85;;;2.60;81.70;;;;;;5133727;27;20019;-77
2021/12/07 02:46:37;;;;;;;0.77;0.50;;;2.60;81.90;;;;;;5133933;27;20023;-76
2021/12/07 02:49:04;;;;;;;1.10;0.80;;;2.60;82.40;;;;;;5133725;27;20064;-76
2021/12/07 02:51:30;;;;;;;0.77;0.70;;;2.60;82.90;;;;;;5133733;27;20428;-77
2021/12/07 02:53:56;;;;;;;1.23;0.80;;;2.50;83.40;;;;;;5136187;27;20034;-76
2021/12/07 02:56:23;;;;;;;0.70;0.55;;;2.60;84.50;;;;;;5137850;27;20048;-77
2021/12/07 02:58:49;;;;;;;1.42;0.68;;;2.40;85.40;;;;;;5137857;27;20027;-76
2021/12/07 03:01:22;;;;;;;1.13;0.55;;;2.40;85.20;;;;;;5137777;27;20012;-76
2021/12/07 03:04:10;;;;;;;0.70;0.50;;;2.50;84.90;;;;;;5137860;27;20051;-77
2021/12/07 03:07:07;;;;;;;0.88;0.70;;;2.50;84.50;;;;;;5137497;27;20068;-77
2021/12/07 03:26:09;;;;;;;2.13;0.73;;;2.40;85.20;;;;;;5138023;27;20283;-76
2021/12/07 03:28:43;;;;;;;2.47;0.70;;;2.40;85.20;;;;;;5138530;27;20055;-76
2021/12/07 03:31:12;;;;;;;1.00;0.47;;;2.50;85.60;;;;;;5138604;27;20046;-75
2021/12/07 03:33:38;;;;;;;1.45;0.65;;;2.50;85.50;;;;;;5145907;27;20118;-76
2021/12/07 03:36:06;;;;;;;1.33;0.65;;;2.50;85.80;;;;;;5137648;27;20019;-77
2021/12/07 03:38:32;;;;;;;1.52;1.00;;;2.50;85.20;;;;;;5137399;27;20475;-77
2021/12/07 03:40:57;;;;;;;0.95;0.70;;;2.50;84.60;;;;;;5137215;27;20054;-77
2021/12/07 03:43:23;;;;;;;2.50;0.70;;;2.60;84.40;;;;;;5137099;27;20103;-77
2021/12/07 03:45:49;;;;;;;0.60;0.60;;;2.60;84.70;;;;;;5137083;27;20429;-77
2021/12/07 03:48:15;;;;;;;1.15;0.60;;;2.60;84.70;;;;;;5137223;27;20027;-77
2021/12/07 03:50:41;;;;;;;0.77;0.60;;;2.70;84.90;;;;;;5136955;27;20479;-76
2021/12/07 03:53:07;;;;;;;2.00;0.80;;;2.60;85.00;;;;;;5136855;27;20076;-76
2021/12/07 03:55:33;;;;;;;2.50;0.90;;;2.50;85.80;;;;;;5136977;27;20011;-76
2021/12/07 03:57:59;;;;;;;1.33;0.90;;;2.50;86.10;;;;;;5136739;27;20031;-76
2021/12/07 04:00:27;;;;;;;1.63;1.10;;;2.60;86.30;;;;;;5136766;27;20058;-76
2021/12/07 04:02:54;;;;;;;3.90;0.90;;;2.50;86.70;;;;;;5136659;27;20019;-77
2021/12/07 04:05:22;;;;;;;1.92;0.90;;;2.50;87.10;;;;;;5135967;27;20485;-76
2021/12/07 04:07:48;;;;;;;1.20;0.95;;;2.40;87.10;;;;;;5136525;27;20069;-77
2021/12/07 04:10:17;;;;;;;2.80;0.80;;;2.40;87.40;;;;;;5136505;27;20046;-77
2021/12/07 04:12:42;;;;;;;2.83;0.95;;;2.40;87.40;;;;;;5136463;27;20041;-77
2021/12/07 04:15:11;;;;;;;7.50;1.33;;;2.40;86.20;;;;;;5136515;27;20019;-77
2021/12/07 04:17:36;;;;;;;3.95;0.90;;;2.40;86.00;;;;;;5136535;27;20055;-78
2021/12/07 04:20:06;;;;;;;5.18;1.10;;;2.50;85.50;;;;;;5136428;27;20030;-78
2021/12/07 04:22:31;;;;;;;1.50;0.75;;;2.50;84.80;;;;;;5136417;27;20072;-77
2021/12/07 04:24:57;;;;;;;3.47;1.55;;;2.40;85.20;;;;;;5136356;27;20031;-77
2021/12/07 04:27:23;;;;;;;5.65;1.25;;;2.50;86.00;;;;;;5136295;27;20034;-77
2021/12/07 04:29:48;;;;;;;3.00;1.35;;;2.50;86.30;;;;;;5136223;27;20383;-77
2021/12/07 04:32:14;;;;;;;3.55;1.08;;;2.40;86.30;;;;;;5136001;27;20455;-77
2021/12/07 04:34:40;;;;;;;1.73;1.00;;;2.40;86.50;;;;;;5135977;27;20023;-77
2021/12/07 04:37:05;;;;;;;1.65;1.00;;;2.40;86.60;;;;;;5117505;27;20033;-77
2021/12/07 04:39:31;;;;;;;2.72;0.88;;;2.50;86.80;;;;;;5136067;27;20057;-77
2021/12/07 04:41:57;;;;;;;2.92;0.90;;;2.50;86.80;;;;;;5135891;27;20380;-77
2021/12/07 04:44:23;;;;;;;4.82;1.40;;;2.50;86.10;;;;;;5135823;27;20375;-77
2021/12/07 04:57:43;;;;;;;1.10;0.80;;;2.80;83.70;;;;;;5135988;27;19918;-76
2021/12/07 05:00:17;;;;;;;2.88;1.10;;;2.80;82.10;;;;;;5135645;27;20030;-77
2021/12/07 05:02:46;;;;;;;5.03;1.23;;;2.80;81.70;;;;;;5135324;27;20395;-77
2021/12/07 05:05:14;;;;;;;4.88;1.10;;;2.80;81.20;;;;;;5135535;27;20023;-77
2021/12/07 05:07:47;;;;;;;2.72;1.00;;;2.80;80.30;;;;;;5135416;27;20094;-76
2021/12/07 05:12:54;;;;;;;6.03;1.20;;;2.90;79.60;;;;;;5135351;27;20096;-76
2021/12/07 05:15:34;;;;;;;2.20;0.80;;;2.80;79.50;;;;;;5134708;27;20028;-77
2021/12/07 05:39:37;;;;;;;7.75;1.42;;;2.80;79.50;;;;;;5134826;27;20062;-76
2021/12/07 05:42:03;;;;;;;4.95;0.80;;;2.80;79.20;;;;;;5134838;27;20359;-76
2021/12/07 05:44:28;;;;;;;2.80;0.85;;;2.80;78.70;;;;;;5134499;27;20034;-75
2021/12/07 05:46:54;;;;;;;4.20;1.10;;;2.80;78.20;;;;;;5133941;27;20394;-74
2021/12/07 05:49:20;;;;;;;9.77;0.95;;;2.90;77.60;;;;;;5134058;27;20031;-75
2021/12/07 05:51:45;;;;;;;3.90;1.10;;;2.90;76.90;;;;;;5134482;27;20492;-74
2021/12/07 05:54:11;;;;;;;4.07;0.82;;;2.90;76.50;;;;;;5134557;27;20030;-74
2021/12/07 05:56:37;;;;;;;5.90;1.55;;;2.90;76.20;;;;;;5134345;27;20011;-75
2021/12/07 05:59:03;;;;;;;1.90;0.60;;;2.90;76.60;;;;;;5135003;27;20038;-74
2021/12/07 06:01:28;;;;;;;4.97;1.25;;;2.80;75.90;;;;;;5134139;27;20110;-76
2021/12/07 06:03:54;;;;;;;7.47;2.50;;;2.90;75.40;;;;;;5134284;27;20496;-74
2021/12/07 06:06:20;;;;;;;2.45;0.95;;;3.00;75.50;;;;;;5134068;27;20030;-75
2021/12/07 06:08:45;;;;;;;3.15;1.30;;;3.00;75.40;;;;;;5134031;27;20019;-75
2021/12/07 06:11:11;;;;;;;2.97;1.10;;;2.90;75.70;;;;;;5133923;27;20030;-75
2021/12/07 06:13:37;;;;;;;12.07;1.42;;;2.90;76.30;;;;;;5134227;27;20439;-75
2021/12/07 06:16:07;;;;;;;6.78;1.20;;;2.80;76.40;;;;;;5115524;27;20023;-75
2021/12/07 06:18:33;;;;;;;7.97;1.75;;;2.80;76.10;;;;;;5133707;27;20053;-76
2021/12/07 06:20:59;;;;;;;5.90;1.98;;;2.80;76.60;;;;;;5133729;27;20095;-75
2021/12/07 06:23:25;;;;;;;4.50;1.65;;;2.80;75.80;;;;;;5133889;27;20468;-76
2021/12/07 06:25:54;;;;;;;3.88;1.13;;;2.90;75.00;;;;;;5133679;27;20055;-77
2021/12/07 06:28:20;;;;;;;7.25;1.15;;;2.90;74.80;;;;;;5133515;27;20023;-77
2021/12/07 06:30:47;;;;;;;5.57;1.25;;;2.90;75.20;;;;;;5132964;27;20080;-76
2021/12/07 06:33:15;;;;;;;3.40;1.10;;;2.90;74.50;;;;;;5133605;27;20027;-76
2021/12/07 06:35:45;;;;;;;6.47;0.93;;;2.90;74.50;;;;;;5133661;27;20016;-77
2021/12/07 06:38:10;;;;;;;5.25;0.93;;;2.90;74.20;;;;;;5133760;27;20019;-77
2021/12/07 06:40:36;;;;;;;5.18;1.10;;;2.90;74.10;;;;;;5133857;28;20027;-77
2021/12/07 06:43:02;;;;;;;3.00;1.02;;;2.90;74.10;;;;;;5133862;27;20512;-76
2021/12/07 06:45:29;;;;;;;7.78;1.17;;;2.90;74.10;;;;;;5125536;28;20028;-76
2021/12/07 06:47:56;;;;;;;6.93;1.20;;;2.90;74.30;;;;;;5122796;28;20015;-76
2021/12/07 06:50:26;;;;;;;6.07;1.42;;;2.90;74.60;;;;;;5103605;28;20443;-76
2021/12/07 06:53:02;;;;;;;4.25;1.08;;;2.80;75.20;;;;;;5109819;27;20039;-77
2021/12/07 06:55:29;;;;;;;5.47;2.33;;;2.90;75.10;;;;;;5133846;27;20023;-76
2021/12/07 06:57:54;;;;;;;2.72;1.00;;;2.90;75.00;;;;;;5133639;28;20052;-76
2021/12/07 07:00:21;;;;;;;6.40;1.13;;;2.90;74.90;;;;;;5133613;27;20400;-76
2021/12/07 07:02:46;;;;;;;5.60;1.10;;;2.90;74.60;;;;;;5134255;27;20031;-76
2021/12/07 07:05:13;;;;;;;6.13;1.77;;;3.00;74.70;;;;;;5133028;27;20516;-76
2021/12/07 07:07:40;;;;;;;7.90;1.58;;;2.90;75.40;;;;;;5133386;27;20023;-76
2021/12/07 07:10:07;;;;;;;6.97;1.75;;;2.90;75.30;;;;;;5133376;27;20115;-75
2021/12/07 07:12:33;;;;;;;6.57;1.73;;;2.90;75.60;;;;;;5133519;27;20084;-77
2021/12/07 07:14:58;;;;;;;8.20;1.77;;;2.90;75.40;;;;;;5133448;27;20490;-76
2021/12/07 07:17:24;;;;;;;3.03;1.00;;;2.90;75.60;;;;;;5133095;27;20035;-75
2021/12/07 07:19:50;;;;;;;9.18;2.88;;;2.90;75.70;;;;;;5133138;27;20102;-78
2021/12/07 07:22:15;;;;;;;7.80;3.03;;;2.90;76.80;;;;;;5133350;27;20034;-77
2021/12/07 07:24:42;;;;;;;5.43;1.75;;;2.90;77.30;;;;;;5133570;27;20015;-77
2021/12/07 07:27:09;;;;;;;7.32;2.85;;;2.90;78.10;;;;;;5133584;27;20152;-77
2021/12/07 07:29:35;;;;;;;14.35;3.55;;;2.90;77.60;;;;;;5133359;27;20478;-76
2021/12/07 07:32:01;;;;;;;12.55;4.72;;;3.00;76.90;;;;;;5133139;27;20522;-77
2021/12/07 07:34:26;;;;;;;10.75;2.38;;;2.90;76.70;;;;;;5114999;28;20106;-77
2021/12/07 07:36:52;;;;;;;7.90;2.22;;;2.90;76.00;;;;;;5133145;27;20497;-76
2021/12/07 07:39:18;;;;;;;8.98;2.20;;;2.90;76.10;;;;;;5134838;27;20423;-76
2021/12/07 07:41:44;;;;;;;6.63;2.22;;;2.90;75.70;;;;;;5136753;27;20019;-76
2021/12/07 07:44:09;;;;;;;6.80;2.08;;;2.90;75.50;;;;;;5136762;27;20119;-76
2021/12/07 07:46:35;;;;;;;10.68;2.30;;;2.90;75.40;;;;;;5136799;27;20046;-76
2021/12/07 07:49:02;;;;;;;10.13;3.63;;;3.00;75.40;;;;;;5118265;27;20054;-77
2021/12/07 07:51:28;;;;;;;11.30;2.75;;;3.00;75.20;;;;;;5136789;27;20076;-77
2021/12/07 07:53:54;;;;;;;13.70;2.60;;;3.00;74.40;;;;;;5136574;27;20035;-77
2021/12/07 07:56:20;;;;;;;8.80;2.58;;;3.00;74.80;;;;;;5136658;27;20019;-77
2021/12/07 07:58:46;;;;;;;5.78;2.20;;;2.90;74.90;;;;;;5136454;27;20401;-76
2021/12/07 08:01:12;;;;;;;6.43;3.10;;;2.90;74.50;;;;;;5136206;27;20026;-76
2021/12/07 08:03:38;;;;;;;14.75;3.55;;;3.00;74.20;;;;;;5136391;27;20019;-76
2021/12/07 08:06:03;;;;;;;12.60;2.45;;;3.00;73.70;;;;;;5136212;27;20019;-75
2021/12/07 08:08:29;;;;;;;7.57;2.08;;;3.00;73.60;;;;;;5136484;27;20113;-76
2021/12/07 08:10:55;;;;;;;11.70;2.33;;;3.00;74.10;;;;;;5136238;27;20348;-75
2021/12/07 08:13:21;;;;;;;6.03;2.17;;;3.10;73.30;;;;;;5136267;27;20035;-73
2021/12/07 08:15:49;;;;;;;8.77;1.63;;;3.30;78.40;;;;;;5136079;27;20475;-76
2021/12/07 08:18:15;;;;;;;10.85;2.10;;;3.90;79.30;;;;;;5135971;27;20034;-75
2021/12/07 08:20:42;;;;;;;7.97;1.60;;;4.10;74.10;;;;;;5136371;27;20015;-76
2021/12/07 08:23:08;;;;;;;8.95;1.88;;;4.50;72.20;;;;;;5136287;27;20023;-78
2021/12/07 08:25:41;;;;;;;3.42;1.48;;;4.80;69.60;;;;;;5136309;27;20386;-77
2021/12/07 08:28:07;;;;;;;4.55;1.42;;;5.10;68.60;;;;;;5136703;27;20490;-76
2021/12/07 08:30:36;;;;;;;4.22;1.55;;;5.30;67.00;;;;;;5136286;27;20030;-76
2021/12/07 08:33:03;;;;;;;8.00;1.90;;;5.40;65.20;;;;;;5135909;27;20051;-76
2021/12/07 08:35:28;;;;;;;4.85;1.77;;;5.70;66.90;;;;;;5136324;27;20026;-77
2021/12/07 08:37:54;;;;;;;10.00;3.35;;;5.90;63.90;;;;;;5118035;27;20023;-76
2021/12/07 08:40:23;;;;;;;6.50;2.50;;;5.90;62.30;;;;;;5136136;27;20023;-76
2021/12/07 08:42:50;;;;;;;9.55;2.40;;;5.50;61.00;;;;;;5117582;27;20027;-76
2021/12/07 08:45:16;;;;;;;12.20;2.88;;;5.30;62.20;;;;;;5117655;27;20026;-76
2021/12/07 08:47:43;;;;;;;6.00;1.88;;;4.80;64.00;;;;;;5136399;27;20110;-76
2021/12/07 08:50:16;;;;;;;10.55;3.10;;;4.40;65.50;;;;;;5118135;27;20033;-77
2021/12/07 08:52:42;;;;;;;9.20;2.83;;;4.10;67.70;;;;;;5150619;27;20035;-79
2021/12/07 09:00:43;;;;;;;5.97;1.83;;;4.20;68.00;;;;;;5111987;27;20039;-78
2021/12/07 09:03:09;;;;;;;7.05;2.05;;;4.20;68.20;;;;;;5147532;27;20027;-77
2021/12/07 09:05:36;;;;;;;8.95;1.90;;;4.10;68.40;;;;;;5141685;27;20421;-77
2021/12/07 09:08:01;;;;;;;5.15;1.27;;;3.80;69.30;;;;;;5140242;27;20079;-77
2021/12/07 09:10:27;;;;;;;6.43;1.73;;;3.60;70.50;;;;;;5140020;27;20027;-77
2021/12/07 09:12:53;;;;;;;7.55;1.73;;;3.60;71.00;;;;;;5138003;27;20031;-77
2021/12/07 09:15:19;;;;;;;12.38;1.77;;;3.50;70.80;;;;;;5135330;27;20094;-77
2021/12/07 09:17:44;;;;;;;5.50;2.10;;;3.60;71.00;;;;;;5116721;27;20126;-77
2021/12/07 09:20:15;;;;;;;13.95;2.42;;;3.60;71.30;;;;;;5134968;27;20462;-77
2021/12/07 09:22:41;;;;;;;9.57;2.03;;;3.60;70.80;;;;;;5134948;27;20156;-77
2021/12/07 09:25:07;;;;;;;9.07;1.83;;;3.60;70.20;;;;;;5134980;27;20027;-77
2021/12/07 09:27:32;;;;;;;3.92;1.20;;;3.60;71.00;;;;;;5134983;27;20023;-77
2021/12/07 09:29:58;;;;;;;11.68;1.67;;;3.70;70.90;;;;;;5134637;27;20031;-75
2021/12/07 09:32:23;;;;;;;5.72;1.33;;;3.80;70.70;;;;;;5134528;27;20054;-77
2021/12/07 09:34:49;;;;;;;4.63;1.42;;;4.00;70.20;;;;;;5134971;27;20031;-77
2021/12/07 09:37:16;;;;;;;5.65;1.77;;;4.30;68.90;;;;;;5135173;27;20120;-77
2021/12/07 09:39:41;;;;;;;7.00;1.85;;;4.80;67.60;;;;;;5134823;27;20128;-77
2021/12/07 09:42:07;;;;;;;4.68;1.48;;;5.40;65.60;;;;;;5134793;27;20031;-77
2021/12/07 09:44:32;;;;;;;6.78;1.42;;;5.50;63.40;;;;;;5134664;27;20062;-77
2021/12/07 09:46:58;;;;;;;8.32;1.80;;;5.40;62.10;;;;;;5134576;27;20034;-77
2021/12/07 09:49:24;;;;;;;8.10;2.25;;;5.30;63.30;;;;;;5134544;27;20023;-76
2021/12/07 09:51:49;;;;;;;4.72;1.63;;;5.20;62.90;;;;;;5134348;27;20031;-77
2021/12/07 09:54:15;;;;;;;6.25;1.38;;;5.30;62.60;;;;;;5134430;27;20106;-76
2021/12/07 09:56:41;;;;;;;6.75;1.83;;;5.30;62.80;;;;;;5134237;27;20420;-76
2021/12/07 09:59:09;;;;;;;6.55;1.20;;;5.60;62.10;;;;;;5134120;27;20038;-76
2021/12/07 10:01:37;;;;;;;4.07;1.25;;;6.10;60.70;;;;;;5133703;27;20037;-77
2021/12/07 10:04:03;;;;;;;12.43;1.98;;;6.30;60.00;;;;;;5133876;27;20474;-75
2021/12/07 10:06:29;;;;;;;4.25;1.20;;;6.80;57.80;;;;;;5134252;27;20035;-76
2021/12/07 10:08:55;;;;;;;4.28;1.65;;;7.10;55.50;;;;;;5134051;27;20019;-76
2021/12/07 10:11:20;;;;;;;12.02;4.35;;;7.60;53.50;;;;;;5115732;27;20031;-76
2021/12/07 10:13:48;;;;;;;5.50;1.25;;;7.90;52.60;;;;;;5134038;27;20062;-76
2021/12/07 10:16:15;;;;;;;8.05;1.90;;;8.00;50.80;;;;;;5133928;27;20015;-76
2021/12/07 10:18:42;;;;;;;3.55;0.90;;;8.00;50.50;;;;;;5133773;27;20139;-76
2021/12/07 10:21:16;;;;;;;3.75;1.13;;;8.00;49.90;;;;;;5133944;27;20072;-76
2021/12/07 10:24:02;;;;;;;4.00;1.25;;;8.10;49.80;;;;;;5133847;27;20023;-76
2021/12/07 10:26:33;;;;;;;12.35;1.50;;;8.00;49.10;;;;;;5133761;27;20047;-75
2021/12/07 10:29:07;;;;;;;3.42;1.23;;;8.00;49.60;;;;;;5134020;27;20031;-75
2021/12/07 10:31:52;;;;;;;6.35;1.40;;;8.00;49.10;;;;;;5133414;27;20051;-76
2021/12/07 10:34:21;;;;;;;3.58;1.10;;;7.70;50.40;;;;;;5133457;27;20429;-76
2021/12/07 10:36:56;;;;;;;6.70;1.58;;;7.70;50.50;;;;;;5115182;28;20026;-76
2021/12/07 10:39:25;;;;;;;6.20;1.63;;;7.90;49.50;;;;;;5133683;27;20064;-77
2021/12/07 10:42:01;;;;;;;5.95;1.88;;;8.00;48.90;;;;;;5133433;27;20035;-77
2021/12/07 10:44:28;;;;;;;;;;;8.30;49.10;;;;;;5134265;28;20024;-75
2021/12/07 10:46:58;;;;;;;6.97;2.05;;;8.70;47.40;;;;;;5133518;27;19903;-76
2021/12/07 10:49:47;;;;;;;8.50;1.48;;;8.60;47.50;;;;;;5133749;27;20058;-76
2021/12/07 10:52:14;;;;;;;11.00;2.42;;;9.00;45.90;;;;;;5133507;27;20042;-76
2021/12/07 10:54:48;;;;;;;6.78;1.50;;;8.90;46.90;;;;;;5133533;27;20019;-76
2021/12/07 10:57:21;;;;;;;7.18;1.70;;;9.00;45.80;;;;;;5133330;27;20091;-76
2021/12/07 11:00:08;;;;;;;3.78;1.00;;;9.00;44.90;;;;;;5133388;27;20019;-77
2021/12/07 11:02:36;;;;;;;4.45;1.35;;;9.60;45.30;;;;;;5133122;27;20042;-77
2021/12/07 11:05:07;;;;;;;3.80;1.23;;;10.20;42.50;;;;;;5133421;27;20019;-76
2021/12/07 11:07:35;;;;;;;4.82;1.38;;;10.90;41.00;;;;;;5133261;27;20031;-77
2021/12/07 11:12:37;;;;;;;7.70;1.10;;;12.20;37.60;;;;;;5132912;27;20387;-75
2021/12/07 11:15:11;;;;;;;7.05;1.50;;;12.60;37.50;;;;;;5135487;27;20019;-76
2021/12/07 11:17:37;;;;;;;6.43;1.30;;;12.20;36.90;;;;;;5118391;27;20031;-76
2021/12/07 11:20:05;;;;;;;4.55;1.15;;;10.60;39.40;;;;;;5137110;27;20027;-75
2021/12/07 11:22:36;;;;;;;3.63;1.30;;;9.70;41.80;;;;;;5137183;27;20054;-77
2021/12/07 11:25:03;;;;;;;5.00;1.58;;;9.00;43.40;;;;;;5137251;27;20122;-76
2021/12/07 11:30:18;;;;;;;4.55;1.33;;;8.60;45.40;;;;;;5137501;27;20243;-77
2021/12/07 11:32:54;;;;;;;5.72;1.27;;;8.30;45.50;;;;;;5137005;27;20047;-77
2021/12/07 11:35:23;;;;;;;5.28;1.65;;;7.80;47.30;;;;;;5137077;27;20497;-76
2021/12/07 11:37:50;;;;;;;3.35;1.60;;;7.60;48.20;;;;;;5118483;27;20435;-77
2021/12/07 11:40:23;;;;;;;3.92;1.20;;;7.10;49.50;;;;;;5136788;27;20058;-77
2021/12/07 11:42:49;;;;;;;6.25;1.45;;;6.70;50.50;;;;;;5136773;27;20034;-77
2021/12/07 11:45:22;;;;;;;8.02;1.35;;;6.60;51.00;;;;;;5136899;27;20347;-77
2021/12/07 11:48:01;;;;;;;7.15;1.40;;;6.50;52.10;;;;;;5136259;27;20379;-77
2021/12/07 11:50:38;;;;;;;3.33;1.15;;;6.50;52.30;;;;;;5136635;27;20055;-77
2021/12/07 11:53:14;;;;;;;4.45;1.60;;;6.40;52.00;;;;;;5136097;27;20031;-78
2021/12/07 11:55:43;;;;;;;4.85;1.00;;;6.30;52.80;;;;;;5117676;27;20034;-78
2021/12/07 11:58:09;;;;;;;3.60;1.17;;;6.20;52.80;;;;;;5136223;27;20083;-77
2021/12/07 12:00:41;;;;;;;6.18;1.70;;;6.30;52.80;;;;;;5136240;27;20019;-77
2021/12/07 12:03:11;;;;;;;5.85;1.40;;;6.50;52.50;;;;;;5136024;27;20023;-78
2021/12/07 12:05:40;;;;;;;4.05;1.10;;;7.30;51.60;;;;;;5117793;27;20455;-77
2021/12/07 12:08:09;;;;;;;8.45;1.30;;;8.30;48.70;;;;;;5135848;27;20027;-77
2021/12/07 12:10:41;;;;;;;5.32;1.20;;;8.80;46.20;;;;;;5136309;27;20019;-77
2021/12/07 12:13:25;;;;;;;4.43;0.95;;;8.70;45.40;;;;;;5136446;27;20031;-77
2021/12/07 12:16:07;;;;;;;4.30;1.10;;;8.60;43.90;;;;;;5117794;27;20072;-78
2021/12/07 12:18:53;;;;;;;7.65;1.10;;;7.70;45.50;;;;;;5136149;27;20023;-78
2021/12/07 12:21:37;;;;;;;4.82;1.23;;;6.70;49.50;;;;;;5136201;27;20019;-77
2021/12/07 12:24:21;;;;;;;10.93;1.40;;;6.30;50.00;;;;;;5136163;27;20102;-76
2021/12/07 12:26:47;;;;;;;8.02;1.58;;;6.00;51.60;;;;;;5135609;27;20024;-77
2021/12/07 12:29:20;;;;;;;3.97;0.90;;;6.00;52.30;;;;;;5135530;27;20526;-77
2021/12/07 12:31:52;;;;;;;3.00;0.82;;;6.00;52.00;;;;;;5135282;27;20126;-80
2021/12/07 12:34:24;;;;;;;9.75;1.63;;;6.20;50.80;;;;;;5135942;27;20096;-77
2021/12/07 12:36:57;;;;;;;2.05;1.02;;;6.30;50.50;;;;;;5117283;27;20566;-77
2021/12/07 12:39:43;;;;;;;3.53;1.02;;;6.30;50.80;;;;;;5135857;27;20031;-77
2021/12/07 12:42:11;;;;;;;10.43;1.52;;;6.60;49.80;;;;;;5135671;27;20020;-77
2021/12/07 12:44:37;;;;;;;3.30;1.15;;;7.30;48.60;;;;;;5135521;27;20027;-75
2021/12/07 12:47:05;;;;;;;6.70;1.08;;;7.70;45.60;;;;;;5135510;27;20038;-76
2021/12/07 12:49:39;;;;;;;4.25;1.05;;;8.20;44.10;;;;;;5135189;27;20058;-76
2021/12/07 12:52:05;;;;;;;5.25;1.17;;;9.00;43.20;;;;;;5135068;27;20114;-76
2021/12/07 12:54:47;;;;;;;3.20;0.73;;;10.90;39.40;;;;;;5135555;27;20098;-77
2021/12/07 12:57:17;;;;;;;2.63;0.93;;;12.80;35.10;;;;;;5135329;27;20019;-77
2021/12/07 12:59:45;;;;;;;5.80;1.25;;;14.90;30.30;;;;;;5135011;27;20012;-76
2021/12/07 13:02:12;;;;;;;5.45;0.95;;;17.50;26.00;;;;;;5135559;27;20040;-77
2021/12/07 13:04:38;;;;;;;8.05;1.05;;;20.00;22.00;;;;;;5135401;27;20046;-77
2021/12/07 13:09:41;;;;;;;2.80;0.82;;;23.10;16.80;;;;;;5135338;27;20031;-77
2021/12/07 13:12:23;;;;;;;3.58;0.73;;;24.40;14.90;;;;;;5135200;27;20066;-76
2021/12/07 13:14:57;;;;;;;4.22;1.30;;;24.80;13.60;;;;;;5135294;27;20026;-77
2021/12/07 13:17:24;;;;;;;3.65;1.15;;;25.00;12.80;;;;;;5135275;27;20030;-77
2021/12/07 13:19:59;;;;;;;2.80;0.88;;;25.20;12.30;;;;;;5135147;27;20030;-78
2021/12/07 13:22:24;;;;;;;4.35;1.05;;;26.20;12.00;;;;;;5135055;27;20039;-78
2021/12/07 13:24:56;;;;;;;4.10;0.90;;;26.10;11.50;;;;;;5135174;27;20032;-77
2021/12/07 13:27:22;;;;;;;4.57;1.13;;;25.40;11.10;;;;;;5134778;27;20019;-77
2021/12/07 13:29:52;;;;;;;2.28;1.10;;;25.70;11.20;;;;;;5135053;27;20031;-77
2021/12/07 13:32:19;;;;;;;4.53;1.10;;;25.80;11.10;;;;;;5116249;27;20479;-77
2021/12/07 13:34:45;;;;;;;1.55;0.80;;;27.00;11.30;;;;;;5134596;27;20034;-76
2021/12/07 13:37:13;;;;;;;3.60;1.17;;;27.90;10.20;;;;;;5133994;27;20015;-77
2021/12/07 13:39:41;;;;;;;5.82;1.00;;;27.70;9.70;;;;;;5134763;27;20139;-77
2021/12/07 13:42:09;;;;;;;7.80;1.23;;;27.30;10.00;;;;;;5134768;27;20038;-77
2021/12/07 13:44:46;;;;;;;2.42;1.30;;;27.30;10.20;;;;;;5134854;27;20471;-77
2021/12/07 13:47:21;;;;;;;3.38;0.98;;;26.80;9.70;;;;;;5134789;27;20096;-77
2021/12/07 13:49:50;;;;;;;;;;;26.50;10.20;;;;;;5134916;27;20475;-77
2021/12/07 13:52:19;;;;;;;3.45;1.17;;;25.30;10.70;;;;;;5116023;27;19909;-76
2021/12/07 13:54:48;;;;;;;5.18;0.88;;;24.50;11.70;;;;;;5134592;27;20106;-77
2021/12/07 13:57:16;;;;;;;3.22;1.13;;;23.60;12.70;;;;;;5134407;27;20034;-77
2021/12/07 13:59:42;;;;;;;2.70;1.35;;;23.90;13.20;;;;;;5134336;27;20030;-76
2021/12/07 14:02:08;;;;;;;9.10;1.10;;;23.60;13.50;;;;;;5134217;27;20031;-76
2021/12/07 14:04:34;;;;;;;3.75;1.35;;;23.80;13.60;;;;;;5134565;27;20015;-76
2021/12/07 14:06:59;;;;;;;4.70;1.60;;;23.90;13.70;;;;;;5134355;27;20039;-76
2021/12/07 14:09:25;;;;;;;6.85;2.35;;;23.50;14.00;;;;;;5134216;27;20075;-77
2021/12/07 14:11:56;;;;;;;5.47;2.20;;;23.60;14.20;;;;;;5133941;27;20019;-78
2021/12/07 14:14:23;;;;;;;4.47;1.95;;;24.60;13.80;;;;;;5134273;27;20444;-77
2021/12/07 14:16:49;;;;;;;5.30;2.22;;;25.10;13.70;;;;;;5133772;27;20015;-77
2021/12/07 14:19:15;;;;;;;5.75;2.30;;;26.10;13.10;;;;;;5115615;27;20337;-77
2021/12/07 14:21:43;;;;;;;5.78;1.40;;;25.60;12.20;;;;;;5115521;27;20033;-76
2021/12/07 14:24:15;;;;;;;6.90;1.80;;;24.00;13.30;;;;;;5133980;27;20031;-77
2021/12/07 14:26:42;;;;;;;2.92;1.10;;;23.20;14.10;;;;;;5133758;27;20012;-77
2021/12/07 14:29:10;;;;;;;5.30;1.55;;;22.20;15.30;;;;;;5133736;27;20029;-76
2021/12/07 14:31:42;;;;;;;4.22;1.48;;;21.10;16.30;;;;;;5133634;27;20043;-75
2021/12/07 14:34:20;;;;;;;5.57;1.25;;;20.50;17.60;;;;;;5133722;27;20023;-76
2021/12/07 14:36:48;;;;;;;1.80;1.13;;;20.40;18.10;;;;;;5133669;27;20022;-76
2021/12/07 14:39:17;;;;;;;5.07;1.60;;;19.80;18.90;;;;;;5115228;28;20479;-77
2021/12/07 14:41:42;;;;;;;6.03;2.08;;;18.20;20.10;;;;;;5133674;27;20068;-76